sensor_id;sensor_type;location;lat;lon;timestamp;pressure;altitude;pressure_sealevel;temperature;humidity
63808;BME280;49961;43.970;22.868;2022-09-01T00:00:43;101270.50;;;21.15;100.00
63808;BME280;49961;43.970;22.868;2022-09-01T00:01:50;101157.81;;;20.52;100.00
63808;BME280;49961;43.970;22.868;2022-09-01T00:02:51;101302.69;;;21.43;100.00
63808;BME280;49961;43.970;22.868;2022-09-01T00:03:53;101295.41;;;21.37;100.00
63808;BME280;49961;43.970;22.868;2022-09-01T00:04:55;101298.44;;;21.33;100.00
63808;BME280;49961;43.970;22.868;2022-09-01T00:05:57;101302.53;;;21.32;100.00
63808;BME280;49961;43.970;22.868;2022-09-01T00:06:58;101297.59;;;21.27;100.00
63808;BME280;49961;43.970;22.868;2022-09-01T00:07:59;101296.25;;;21.23;100.00
63808;BME280;49961;43.970;22.868;2022-09-01T00:09:03;101185.19;;;20.51;100.00
63808;BME280;49961;43.970;22.868;2022-09-01T00:10:06;101303.00;;;21.31;100.00
63808;BME280;49961;43.970;22.868;2022-09-01T00:11:06;101296.97;;;21.38;100.00
63808;BME280;49961;43.970;22.868;2022-09-01T00:12:08;101260.41;;;21.09;100.00
63808;BME280;49961;43.970;22.868;2022-09-01T00:13:08;101299.09;;;21.43;100.00
63808;BME280;49961;43.970;22.868;2022-09-01T00:14:10;101232.53;;;20.96;100.00
63808;BME280;49961;43.970;22.868;2022-09-01T00:15:11;101297.25;;;21.40;100.00
63808;BME280;49961;43.970;22.868;2022-09-01T00:16:12;101288.00;;;21.39;100.00
63808;BME280;49961;43.970;22.868;2022-09-01T00:17:14;101284.63;;;21.35;100.00
63808;BME280;49961;43.970;22.868;2022-09-01T00:18:14;101290.13;;;21.44;100.00
63808;BME280;49961;43.970;22.868;2022-09-01T00:19:15;101296.56;;;21.45;100.00
63808;BME280;49961;43.970;22.868;2022-09-01T00:20:16;101286.41;;;21.53;100.00
63808;BME280;49961;43.970;22.868;2022-09-01T00:21:19;101287.91;;;21.48;100.00
63808;BME280;49961;43.970;22.868;2022-09-01T00:22:20;101290.44;;;21.46;100.00
63808;BME280;49961;43.970;22.868;2022-09-01T00:23:21;101258.38;;;21.29;100.00
63808;BME280;49961;43.970;22.868;2022-09-01T00:24:21;101281.47;;;21.48;100.00
63808;BME280;49961;43.970;22.868;2022-09-01T00:25:22;101291.78;;;21.51;100.00
63808;BME280;49961;43.970;22.868;2022-09-01T00:26:23;101288.97;;;21.51;100.00
63808;BME280;49961;43.970;22.868;2022-09-01T00:27:24;101291.50;;;21.49;100.00
63808;BME280;49961;43.970;22.868;2022-09-01T00:28:24;101288.38;;;21.47;100.00
63808;BME280;49961;43.970;22.868;2022-09-01T00:29:26;101285.88;;;21.49;100.00
63808;BME280;49961;43.970;22.868;2022-09-01T00:30:26;101291.19;;;21.47;100.00
63808;BME280;49961;43.970;22.868;2022-09-01T00:31:27;101290.13;;;21.44;100.00
63808;BME280;49961;43.970;22.868;2022-09-01T00:32:28;101278.72;;;21.33;100.00
63808;BME280;49961;43.970;22.868;2022-09-01T00:33:29;101276.00;;;21.24;100.00
63808;BME280;49961;43.970;22.868;2022-09-01T00:34:29;101256.03;;;21.08;100.00
63808;BME280;49961;43.970;22.868;2022-09-01T00:35:30;101260.63;;;21.05;100.00
63808;BME280;49961;43.970;22.868;2022-09-01T00:36:30;101119.88;;;20.04;100.00
63808;BME280;49961;43.970;22.868;2022-09-01T00:37:31;101157.16;;;20.28;100.00
63808;BME280;49961;43.970;22.868;2022-09-01T00:38:32;101291.09;;;21.07;100.00
63808;BME280;49961;43.970;22.868;2022-09-01T00:39:33;101288.22;;;21.01;100.00
63808;BME280;49961;43.970;22.868;2022-09-01T00:40:33;101160.66;;;20.23;100.00
63808;BME280;49961;43.970;22.868;2022-09-01T00:41:36;101287.63;;;20.97;100.00
63808;BME280;49961;43.970;22.868;2022-09-01T00:42:42;101291.41;;;20.94;100.00
63808;BME280;49961;43.970;22.868;2022-09-01T00:43:55;101287.53;;;20.92;100.00
63808;BME280;49961;43.970;22.868;2022-09-01T00:44:57;101302.69;;;20.94;100.00
63808;BME280;49961;43.970;22.868;2022-09-01T00:45:57;101286.34;;;20.98;100.00
63808;BME280;49961;43.970;22.868;2022-09-01T00:46:58;101291.78;;;21.02;100.00
63808;BME280;49961;43.970;22.868;2022-09-01T00:47:58;101170.53;;;20.33;100.00
63808;BME280;49961;43.970;22.868;2022-09-01T00:49:03;101283.44;;;21.07;100.00
63808;BME280;49961;43.970;22.868;2022-09-01T00:50:06;101285.28;;;21.10;100.00
63808;BME280;49961;43.970;22.868;2022-09-01T00:51:09;101286.53;;;21.09;100.00
63808;BME280;49961;43.970;22.868;2022-09-01T00:52:28;101291.19;;;21.12;100.00
63808;BME280;49961;43.970;22.868;2022-09-01T00:53:31;101283.03;;;21.14;100.00
63808;BME280;49961;43.970;22.868;2022-09-01T00:54:36;101285.66;;;21.18;100.00
63808;BME280;49961;43.970;22.868;2022-09-01T00:55:39;101276.69;;;21.19;100.00
63808;BME280;49961;43.970;22.868;2022-09-01T00:56:40;101130.66;;;20.20;100.00
63808;BME280;49961;43.970;22.868;2022-09-01T00:57:41;101283.91;;;21.20;100.00
63808;BME280;49961;43.970;22.868;2022-09-01T00:58:42;101289.03;;;21.22;100.00
63808;BME280;49961;43.970;22.868;2022-09-01T00:59:58;101290.41;;;21.26;100.00
63808;BME280;49961;43.970;22.868;2022-09-01T01:01:00;101158.88;;;20.40;100.00
63808;BME280;49961;43.970;22.868;2022-09-01T01:02:01;101274.75;;;21.25;100.00
63808;BME280;49961;43.970;22.868;2022-09-01T01:03:02;101178.09;;;20.56;100.00
63808;BME280;49961;43.970;22.868;2022-09-01T01:04:04;101284.47;;;21.24;100.00
63808;BME280;49961;43.970;22.868;2022-09-01T01:05:06;101292.16;;;21.24;100.00
63808;BME280;49961;43.970;22.868;2022-09-01T01:06:07;101288.06;;;21.25;100.00
63808;BME280;49961;43.970;22.868;2022-09-01T01:07:09;101248.81;;;21.07;100.00
63808;BME280;49961;43.970;22.868;2022-09-01T01:08:10;101278.91;;;21.30;100.00
63808;BME280;49961;43.970;22.868;2022-09-01T01:09:11;101285.53;;;21.27;100.00
63808;BME280;49961;43.970;22.868;2022-09-01T01:10:13;101282.69;;;21.27;100.00
63808;BME280;49961;43.970;22.868;2022-09-01T01:11:15;101279.34;;;21.23;100.00
63808;BME280;49961;43.970;22.868;2022-09-01T01:12:17;101276.16;;;21.15;100.00
63808;BME280;49961;43.970;22.868;2022-09-01T01:13:17;101228.38;;;20.77;100.00
63808;BME280;49961;43.970;22.868;2022-09-01T01:14:20;101275.94;;;21.19;100.00
63808;BME280;49961;43.970;22.868;2022-09-01T01:15:20;101294.41;;;21.20;100.00
63808;BME280;49961;43.970;22.868;2022-09-01T01:16:23;101286.41;;;21.18;100.00
63808;BME280;49961;43.970;22.868;2022-09-01T01:17:24;101274.09;;;21.16;100.00
63808;BME280;49961;43.970;22.868;2022-09-01T01:18:24;101278.38;;;21.11;100.00
63808;BME280;49961;43.970;22.868;2022-09-01T01:19:41;101276.63;;;21.14;100.00
63808;BME280;49961;43.970;22.868;2022-09-01T01:21:03;101276.91;;;21.16;100.00
63808;BME280;49961;43.970;22.868;2022-09-01T01:25:24;101270.63;;;21.06;100.00
63808;BME280;49961;43.970;22.868;2022-09-01T01:26:25;101270.31;;;21.04;100.00
63808;BME280;49961;43.970;22.868;2022-09-01T01:27:34;101275.19;;;21.04;100.00
63808;BME280;49961;43.970;22.868;2022-09-01T01:28:38;101279.06;;;21.06;100.00
63808;BME280;49961;43.970;22.868;2022-09-01T01:29:39;101284.41;;;21.04;100.00
63808;BME280;49961;43.970;22.868;2022-09-01T01:30:47;101285.66;;;21.03;100.00
63808;BME280;49961;43.970;22.868;2022-09-01T01:31:51;101280.03;;;21.03;100.00
63808;BME280;49961;43.970;22.868;2022-09-01T01:32:53;101286.75;;;21.06;100.00
63808;BME280;49961;43.970;22.868;2022-09-01T01:33:57;101276.53;;;21.08;100.00
63808;BME280;49961;43.970;22.868;2022-09-01T01:34:58;101281.97;;;21.12;100.00
63808;BME280;49961;43.970;22.868;2022-09-01T01:36:02;101213.91;;;20.70;100.00
63808;BME280;49961;43.970;22.868;2022-09-01T01:37:07;101282.66;;;21.07;100.00
63808;BME280;49961;43.970;22.868;2022-09-01T01:38:10;101288.00;;;21.05;100.00
63808;BME280;49961;43.970;22.868;2022-09-01T01:40:17;101286.25;;;21.07;100.00
63808;BME280;49961;43.970;22.868;2022-09-01T01:41:19;101281.59;;;21.04;100.00
63808;BME280;49961;43.970;22.868;2022-09-01T01:42:21;101282.66;;;21.07;100.00
63808;BME280;49961;43.970;22.868;2022-09-01T01:43:23;101273.44;;;21.06;100.00
63808;BME280;49961;43.970;22.868;2022-09-01T01:44:26;101286.84;;;21.11;100.00
63808;BME280;49961;43.970;22.868;2022-09-01T01:45:30;101281.19;;;21.11;100.00
63808;BME280;49961;43.970;22.868;2022-09-01T01:46:32;101276.84;;;21.10;100.00
63808;BME280;49961;43.970;22.868;2022-09-01T01:47:32;101276.31;;;21.12;100.00
63808;BME280;49961;43.970;22.868;2022-09-01T01:48:35;101274.50;;;21.09;100.00
63808;BME280;49961;43.970;22.868;2022-09-01T01:49:39;101282.38;;;21.05;100.00
63808;BME280;49961;43.970;22.868;2022-09-01T01:50:42;101284.03;;;20.97;100.00
63808;BME280;49961;43.970;22.868;2022-09-01T01:51:47;101286.78;;;20.91;100.00
63808;BME280;49961;43.970;22.868;2022-09-01T01:52:48;101294.31;;;20.85;100.00
63808;BME280;49961;43.970;22.868;2022-09-01T01:53:48;101287.41;;;20.86;100.00
63808;BME280;49961;43.970;22.868;2022-09-01T01:54:51;101296.66;;;20.87;100.00
63808;BME280;49961;43.970;22.868;2022-09-01T01:55:53;101292.56;;;20.88;100.00
63808;BME280;49961;43.970;22.868;2022-09-01T01:56:54;101170.50;;;20.04;100.00
63808;BME280;49961;43.970;22.868;2022-09-01T01:57:55;101200.94;;;20.29;100.00
63808;BME280;49961;43.970;22.868;2022-09-01T01:58:55;101296.94;;;20.89;100.00
63808;BME280;49961;43.970;22.868;2022-09-01T01:59:56;101283.53;;;20.84;100.00
63808;BME280;49961;43.970;22.868;2022-09-01T02:00:57;101301.22;;;20.84;100.00
63808;BME280;49961;43.970;22.868;2022-09-01T02:01:58;101254.13;;;20.41;100.00
63808;BME280;49961;43.970;22.868;2022-09-01T02:03:09;101303.75;;;20.82;100.00
63808;BME280;49961;43.970;22.868;2022-09-01T02:04:11;101297.81;;;20.80;100.00
63808;BME280;49961;43.970;22.868;2022-09-01T02:05:14;101283.56;;;20.69;100.00
63808;BME280;49961;43.970;22.868;2022-09-01T02:06:23;101293.75;;;20.81;100.00
63808;BME280;49961;43.970;22.868;2022-09-01T02:07:24;101303.94;;;20.79;100.00
63808;BME280;49961;43.970;22.868;2022-09-01T02:08:26;101299.00;;;20.74;100.00
63808;BME280;49961;43.970;22.868;2022-09-01T02:09:27;101301.41;;;20.66;100.00
63808;BME280;49961;43.970;22.868;2022-09-01T02:10:30;101311.91;;;20.51;100.00
63808;BME280;49961;43.970;22.868;2022-09-01T02:11:31;101297.63;;;20.40;100.00
63808;BME280;49961;43.970;22.868;2022-09-01T02:12:33;101192.69;;;19.73;100.00
63808;BME280;49961;43.970;22.868;2022-09-01T02:13:33;101306.75;;;20.50;100.00
63808;BME280;49961;43.970;22.868;2022-09-01T02:14:34;101307.81;;;20.52;100.00
63808;BME280;49961;43.970;22.868;2022-09-01T02:15:39;101307.31;;;20.54;100.00
63808;BME280;49961;43.970;22.868;2022-09-01T02:16:43;101231.44;;;20.07;100.00
63808;BME280;49961;43.970;22.868;2022-09-01T02:17:44;101305.09;;;20.58;100.00
63808;BME280;49961;43.970;22.868;2022-09-01T02:18:45;101239.25;;;20.12;100.00
63808;BME280;49961;43.970;22.868;2022-09-01T02:19:50;101307.44;;;20.59;100.00
63808;BME280;49961;43.970;22.868;2022-09-01T02:20:56;101217.56;;;20.03;100.00
63808;BME280;49961;43.970;22.868;2022-09-01T02:21:58;101306.78;;;20.64;100.00
63808;BME280;49961;43.970;22.868;2022-09-01T02:22:59;101189.25;;;19.92;100.00
63808;BME280;49961;43.970;22.868;2022-09-01T02:24:09;101180.69;;;19.87;100.00
63808;BME280;49961;43.970;22.868;2022-09-01T02:25:11;101302.22;;;20.67;100.00
63808;BME280;49961;43.970;22.868;2022-09-01T02:26:15;101296.84;;;20.69;100.00
63808;BME280;49961;43.970;22.868;2022-09-01T02:27:18;101296.25;;;20.65;100.00
63808;BME280;49961;43.970;22.868;2022-09-01T02:28:24;101297.91;;;20.71;100.00
63808;BME280;49961;43.970;22.868;2022-09-01T02:29:26;101294.50;;;20.67;100.00
63808;BME280;49961;43.970;22.868;2022-09-01T02:30:27;101146.41;;;19.59;100.00
63808;BME280;49961;43.970;22.868;2022-09-01T02:31:33;101308.78;;;20.64;100.00
63808;BME280;49961;43.970;22.868;2022-09-01T02:32:59;101308.78;;;20.64;100.00
63808;BME280;49961;43.970;22.868;2022-09-01T02:34:01;101307.03;;;20.66;100.00
63808;BME280;49961;43.970;22.868;2022-09-01T02:35:04;101296.94;;;20.60;100.00
63808;BME280;49961;43.970;22.868;2022-09-01T02:36:13;101310.44;;;20.70;100.00
63808;BME280;49961;43.970;22.868;2022-09-01T02:37:14;101305.88;;;20.73;100.00
63808;BME280;49961;43.970;22.868;2022-09-01T02:38:16;101302.88;;;20.76;100.00
63808;BME280;49961;43.970;22.868;2022-09-01T02:39:26;101306.47;;;20.77;100.00
63808;BME280;49961;43.970;22.868;2022-09-01T02:40:27;101307.53;;;20.79;100.00
63808;BME280;49961;43.970;22.868;2022-09-01T02:41:30;101305.69;;;20.76;100.00
63808;BME280;49961;43.970;22.868;2022-09-01T02:42:31;101303.84;;;20.73;100.00
63808;BME280;49961;43.970;22.868;2022-09-01T02:43:32;101271.69;;;20.51;100.00
63808;BME280;49961;43.970;22.868;2022-09-01T02:44:33;101308.59;;;20.67;100.00
63808;BME280;49961;43.970;22.868;2022-09-01T02:45:33;101308.31;;;20.65;100.00
63808;BME280;49961;43.970;22.868;2022-09-01T02:46:34;101203.31;;;19.92;100.00
63808;BME280;49961;43.970;22.868;2022-09-01T02:47:37;101302.56;;;20.60;100.00
63808;BME280;49961;43.970;22.868;2022-09-01T02:48:44;101300.94;;;20.68;100.00
63808;BME280;49961;43.970;22.868;2022-09-01T02:49:45;101198.25;;;19.96;100.00
63808;BME280;49961;43.970;22.868;2022-09-01T02:50:45;101301.69;;;20.68;100.00
63808;BME280;49961;43.970;22.868;2022-09-01T02:51:48;101307.84;;;20.67;100.00
63808;BME280;49961;43.970;22.868;2022-09-01T02:52:51;101304.50;;;20.68;100.00
63808;BME280;49961;43.970;22.868;2022-09-01T02:53:52;101307.03;;;20.66;100.00
63808;BME280;49961;43.970;22.868;2022-09-01T02:54:53;101300.16;;;20.67;100.00
63808;BME280;49961;43.970;22.868;2022-09-01T02:55:54;101304.81;;;20.70;100.00
63808;BME280;49961;43.970;22.868;2022-09-01T02:56:58;101294.31;;;20.71;100.00
63808;BME280;49961;43.970;22.868;2022-09-01T02:57:59;101305.56;;;20.71;100.00
63808;BME280;49961;43.970;22.868;2022-09-01T02:58:59;101309.88;;;20.66;100.00
63808;BME280;49961;43.970;22.868;2022-09-01T03:00:02;101311.31;;;20.62;100.00
63808;BME280;49961;43.970;22.868;2022-09-01T03:01:03;101310.94;;;20.54;100.00
63808;BME280;49961;43.970;22.868;2022-09-01T03:02:04;101308.47;;;20.47;100.00
63808;BME280;49961;43.970;22.868;2022-09-01T03:03:07;101325.28;;;20.42;100.00
63808;BME280;49961;43.970;22.868;2022-09-01T03:04:10;101318.28;;;20.37;100.00
63808;BME280;49961;43.970;22.868;2022-09-01T03:05:11;101326.72;;;20.37;100.00
63808;BME280;49961;43.970;22.868;2022-09-01T03:06:16;101311.88;;;20.37;100.00
63808;BME280;49961;43.970;22.868;2022-09-01T03:07:18;101322.66;;;20.38;100.00
63808;BME280;49961;43.970;22.868;2022-09-01T03:08:23;101322.84;;;20.35;100.00
63808;BME280;49961;43.970;22.868;2022-09-01T03:09:24;101324.69;;;20.38;100.00
63808;BME280;49961;43.970;22.868;2022-09-01T03:10:27;101325.97;;;20.37;100.00
63808;BME280;49961;43.970;22.868;2022-09-01T03:11:32;101319.66;;;20.42;100.00
63808;BME280;49961;43.970;22.868;2022-09-01T03:12:34;101307.81;;;20.38;100.00
63808;BME280;49961;43.970;22.868;2022-09-01T03:13:37;101319.47;;;20.45;100.00
63808;BME280;49961;43.970;22.868;2022-09-01T03:14:38;101312.56;;;20.46;100.00
63808;BME280;49961;43.970;22.868;2022-09-01T03:15:38;101197.63;;;19.78;100.00
63808;BME280;49961;43.970;22.868;2022-09-01T03:16:39;101254.28;;;20.09;100.00
63808;BME280;49961;43.970;22.868;2022-09-01T03:17:40;101301.69;;;20.54;100.00
63808;BME280;49961;43.970;22.868;2022-09-01T03:18:41;101298.09;;;20.53;100.00
63808;BME280;49961;43.970;22.868;2022-09-01T03:19:42;101304.72;;;20.65;100.00
63808;BME280;49961;43.970;22.868;2022-09-01T03:20:45;101306.09;;;20.69;100.00
63808;BME280;49961;43.970;22.868;2022-09-01T03:21:46;101307.63;;;20.70;100.00
63808;BME280;49961;43.970;22.868;2022-09-01T03:22:48;101258.41;;;20.37;100.00
63808;BME280;49961;43.970;22.868;2022-09-01T03:23:51;101313.94;;;20.80;100.00
63808;BME280;49961;43.970;22.868;2022-09-01T03:24:52;101312.00;;;20.86;100.00
63808;BME280;49961;43.970;22.868;2022-09-01T03:25:52;101305.59;;;20.85;100.00
63808;BME280;49961;43.970;22.868;2022-09-01T03:26:53;101297.63;;;20.84;100.00
63808;BME280;49961;43.970;22.868;2022-09-01T03:27:55;101305.13;;;20.87;100.00
63808;BME280;49961;43.970;22.868;2022-09-01T03:28:58;101294.44;;;20.91;100.00
63808;BME280;49961;43.970;22.868;2022-09-01T03:29:58;101297.56;;;20.93;100.00
63808;BME280;49961;43.970;22.868;2022-09-01T03:33:00;101296.94;;;21.03;100.00
63808;BME280;49961;43.970;22.868;2022-09-01T03:34:01;101290.66;;;20.94;100.00
63808;BME280;49961;43.970;22.868;2022-09-01T03:35:03;101301.31;;;21.04;100.00
63808;BME280;49961;43.970;22.868;2022-09-01T03:36:04;101295.50;;;21.08;100.00
63808;BME280;49961;43.970;22.868;2022-09-01T03:37:05;101299.66;;;21.12;100.00
63808;BME280;49961;43.970;22.868;2022-09-01T03:38:07;101302.56;;;21.18;100.00
63808;BME280;49961;43.970;22.868;2022-09-01T03:39:07;101292.38;;;21.20;100.00
63808;BME280;49961;43.970;22.868;2022-09-01T03:40:10;101296.72;;;21.21;100.00
63808;BME280;49961;43.970;22.868;2022-09-01T03:41:11;101290.88;;;21.25;100.00
63808;BME280;49961;43.970;22.868;2022-09-01T03:42:12;101296.53;;;21.25;100.00
63808;BME280;49961;43.970;22.868;2022-09-01T03:43:19;101298.38;;;21.28;100.00
63808;BME280;49961;43.970;22.868;2022-09-01T03:44:24;101293.22;;;21.26;100.00
63808;BME280;49961;43.970;22.868;2022-09-01T03:45:24;101294.75;;;21.27;100.00
63808;BME280;49961;43.970;22.868;2022-09-01T03:46:27;101304.56;;;21.32;100.00
63808;BME280;49961;43.970;22.868;2022-09-01T03:47:29;101157.13;;;20.42;100.00
63808;BME280;49961;43.970;22.868;2022-09-01T03:48:30;101258.50;;;21.00;100.00
63808;BME280;49961;43.970;22.868;2022-09-01T03:49:31;101287.59;;;21.26;100.00
63808;BME280;49961;43.970;22.868;2022-09-01T03:50:31;101302.91;;;21.40;100.00
63808;BME280;49961;43.970;22.868;2022-09-01T03:51:32;101307.84;;;21.45;100.00
63808;BME280;49961;43.970;22.868;2022-09-01T03:52:33;101307.63;;;21.48;100.00
63808;BME280;49961;43.970;22.868;2022-09-01T03:53:36;101309.41;;;21.46;100.00
63808;BME280;49961;43.970;22.868;2022-09-01T03:54:37;101308.69;;;21.51;100.00
63808;BME280;49961;43.970;22.868;2022-09-01T03:55:38;101322.09;;;21.56;100.00
63808;BME280;49961;43.970;22.868;2022-09-01T03:56:40;101308.28;;;21.58;100.00
63808;BME280;49961;43.970;22.868;2022-09-01T03:57:40;101311.09;;;21.58;100.00
63808;BME280;49961;43.970;22.868;2022-09-01T03:58:42;101220.78;;;20.98;100.00
63808;BME280;49961;43.970;22.868;2022-09-01T03:59:46;101254.16;;;21.19;100.00
63808;BME280;49961;43.970;22.868;2022-09-01T04:00:49;101309.91;;;21.64;100.00
63808;BME280;49961;43.970;22.868;2022-09-01T04:01:54;101313.78;;;21.67;100.00
63808;BME280;49961;43.970;22.868;2022-09-01T04:02:57;101311.75;;;21.67;100.00
63808;BME280;49961;43.970;22.868;2022-09-01T04:03:58;101176.41;;;20.78;100.00
63808;BME280;49961;43.970;22.868;2022-09-01T04:05:00;101313.34;;;21.68;100.00
63808;BME280;49961;43.970;22.868;2022-09-01T04:06:01;101170.59;;;20.82;100.00
63808;BME280;49961;43.970;22.868;2022-09-01T04:07:02;101318.16;;;21.68;100.00
63808;BME280;49961;43.970;22.868;2022-09-01T04:08:06;101316.16;;;21.68;100.00
63808;BME280;49961;43.970;22.868;2022-09-01T04:09:10;101310.03;;;21.70;100.00
63808;BME280;49961;43.970;22.868;2022-09-01T04:10:10;101314.41;;;21.71;100.00
63808;BME280;49961;43.970;22.868;2022-09-01T04:11:18;101307.78;;;21.74;100.00
63808;BME280;49961;43.970;22.868;2022-09-01T04:12:21;101312.63;;;21.73;100.00
63808;BME280;49961;43.970;22.868;2022-09-01T04:13:25;101310.31;;;21.72;100.00
63808;BME280;49961;43.970;22.868;2022-09-01T04:14:26;101307.97;;;21.70;100.00
63808;BME280;49961;43.970;22.868;2022-09-01T04:15:27;101309.03;;;21.73;100.00
63808;BME280;49961;43.970;22.868;2022-09-01T04:16:31;101309.81;;;21.73;100.00
63808;BME280;49961;43.970;22.868;2022-09-01T04:17:50;101307.00;;;21.73;100.00
63808;BME280;49961;43.970;22.868;2022-09-01T04:19:10;101303.19;;;21.76;100.00
63808;BME280;49961;43.970;22.868;2022-09-01T04:20:24;101283.25;;;21.65;100.00
63808;BME280;49961;43.970;22.868;2022-09-01T04:21:25;101310.94;;;21.81;100.00
63808;BME280;49961;43.970;22.868;2022-09-01T04:22:25;101303.03;;;21.85;100.00
63808;BME280;49961;43.970;22.868;2022-09-01T04:23:31;101305.84;;;21.85;100.00
63808;BME280;49961;43.970;22.868;2022-09-01T04:24:33;101304.66;;;21.92;100.00
63808;BME280;49961;43.970;22.868;2022-09-01T04:25:33;101307.97;;;21.90;100.00
63808;BME280;49961;43.970;22.868;2022-09-01T04:26:36;101304.88;;;21.88;100.00
63808;BME280;49961;43.970;22.868;2022-09-01T04:27:37;101191.97;;;21.08;100.00
63808;BME280;49961;43.970;22.868;2022-09-01T04:28:43;101308.53;;;21.74;100.00
63808;BME280;49961;43.970;22.868;2022-09-01T04:29:48;101313.78;;;21.67;100.00
63808;BME280;49961;43.970;22.868;2022-09-01T04:30:54;101224.75;;;21.06;100.00
63808;BME280;49961;43.970;22.868;2022-09-01T04:32:04;101312.56;;;21.53;100.00
63808;BME280;49961;43.970;22.868;2022-09-01T04:33:07;101315.50;;;21.59;100.00
63808;BME280;49961;43.970;22.868;2022-09-01T04:34:07;101312.25;;;21.66;100.00
63808;BME280;49961;43.970;22.868;2022-09-01T04:35:13;101257.19;;;21.16;100.00
63808;BME280;49961;43.970;22.868;2022-09-01T04:36:20;101310.69;;;21.65;100.00
63808;BME280;49961;43.970;22.868;2022-09-01T04:37:21;101314.88;;;21.69;100.00
63808;BME280;49961;43.970;22.868;2022-09-01T04:38:23;101316.81;;;21.63;100.00
63808;BME280;49961;43.970;22.868;2022-09-01T04:39:24;101315.75;;;21.61;100.00
63808;BME280;49961;43.970;22.868;2022-09-01T04:40:24;101319.16;;;21.65;100.00
63808;BME280;49961;43.970;22.868;2022-09-01T04:41:28;101329.66;;;21.64;100.00
63808;BME280;49961;43.970;22.868;2022-09-01T04:42:31;101312.47;;;21.62;100.00
63808;BME280;49961;43.970;22.868;2022-09-01T04:43:35;101319.56;;;21.72;100.00
63808;BME280;49961;43.970;22.868;2022-09-01T04:44:35;101293.19;;;21.61;100.00
63808;BME280;49961;43.970;22.868;2022-09-01T04:45:36;101329.72;;;21.84;100.00
63808;BME280;49961;43.970;22.868;2022-09-01T04:46:39;101256.50;;;21.41;100.00
63808;BME280;49961;43.970;22.868;2022-09-01T04:47:41;101332.66;;;21.95;100.00
63808;BME280;49961;43.970;22.868;2022-09-01T04:48:42;101325.00;;;21.96;100.00
63808;BME280;49961;43.970;22.868;2022-09-01T04:49:47;101334.50;;;21.98;100.00
63808;BME280;49961;43.970;22.868;2022-09-01T04:50:48;101328.66;;;22.02;100.00
63808;BME280;49961;43.970;22.868;2022-09-01T04:51:50;101328.16;;;22.03;100.00
63808;BME280;49961;43.970;22.868;2022-09-01T04:52:51;101326.09;;;22.04;100.00
63808;BME280;49961;43.970;22.868;2022-09-01T04:53:55;101324.56;;;22.03;100.00
63808;BME280;49961;43.970;22.868;2022-09-01T04:54:56;101321.50;;;22.06;100.00
63808;BME280;49961;43.970;22.868;2022-09-01T04:56:02;101321.03;;;21.88;100.00
63808;BME280;49961;43.970;22.868;2022-09-01T04:57:04;101335.28;;;21.99;100.00
63808;BME280;49961;43.970;22.868;2022-09-01T04:58:07;101316.38;;;22.05;100.00
63808;BME280;49961;43.970;22.868;2022-09-01T04:59:11;101333.09;;;22.08;100.00
63808;BME280;49961;43.970;22.868;2022-09-01T05:00:17;101329.84;;;22.15;100.00
63808;BME280;49961;43.970;22.868;2022-09-01T05:01:25;101328.28;;;22.14;100.00
63808;BME280;49961;43.970;22.868;2022-09-01T05:02:26;101327.03;;;22.15;100.00
63808;BME280;49961;43.970;22.868;2022-09-01T05:03:28;101321.16;;;22.19;100.00
63808;BME280;49961;43.970;22.868;2022-09-01T05:04:31;101312.63;;;22.13;100.00
63808;BME280;49961;43.970;22.868;2022-09-01T05:05:51;101321.50;;;22.26;100.00
63808;BME280;49961;43.970;22.868;2022-09-01T05:06:55;101319.94;;;22.25;100.00
63808;BME280;49961;43.970;22.868;2022-09-01T05:07:58;101324.81;;;22.25;100.00
63808;BME280;49961;43.970;22.868;2022-09-01T05:08:59;101316.16;;;22.28;100.00
63808;BME280;49961;43.970;22.868;2022-09-01T05:10:00;101326.22;;;22.35;100.00
63808;BME280;49961;43.970;22.868;2022-09-01T05:11:03;101302.03;;;22.28;100.00
63808;BME280;49961;43.970;22.868;2022-09-01T05:12:07;101329.38;;;22.42;100.00
63808;BME280;49961;43.970;22.868;2022-09-01T05:13:12;101330.75;;;22.47;100.00
63808;BME280;49961;43.970;22.868;2022-09-01T05:14:14;101320.75;;;22.46;100.00
63808;BME280;49961;43.970;22.868;2022-09-01T05:15:18;101290.94;;;22.25;100.00
63808;BME280;49961;43.970;22.868;2022-09-01T05:16:20;101327.25;;;22.57;100.00
63808;BME280;49961;43.970;22.868;2022-09-01T05:17:20;101322.38;;;22.58;100.00
63808;BME280;49961;43.970;22.868;2022-09-01T05:18:21;101326.28;;;22.60;100.00
63808;BME280;49961;43.970;22.868;2022-09-01T05:19:25;101323.22;;;22.64;100.00
63808;BME280;49961;43.970;22.868;2022-09-01T05:20:28;101331.97;;;22.66;100.00
63808;BME280;49961;43.970;22.868;2022-09-01T05:21:29;101217.19;;;21.92;100.00
63808;BME280;49961;43.970;22.868;2022-09-01T05:22:30;101317.56;;;22.64;100.00
63808;BME280;49961;43.970;22.868;2022-09-01T05:23:30;101326.59;;;22.68;100.00
63808;BME280;49961;43.970;22.868;2022-09-01T05:24:32;101211.63;;;21.97;100.00
63808;BME280;49961;43.970;22.868;2022-09-01T05:25:38;101314.50;;;22.67;100.00
63808;BME280;49961;43.970;22.868;2022-09-01T05:26:41;101316.03;;;22.63;100.00